LLBGLLSD

Guest
Details From LLBG - Tel Aviv Ben Gurion
To LLSD - Sde Dov
Flight Number -
Tags Routegen Generated
Created
Modified
Stats Distance 4 nm / 8 km
Max Altitude 0 ft / 0 m
Waypoints 2
Social Downloads 3
Likes 0
Share VATSIM

Download

Looking for another format? Having issues loading an existing format? Contact us
Advertisement - Login to hide

Notes

Departing runway 25 LLBG. Arriving runway 2 LLSD.

Route

LLBG +32.00_+034.78

ID Type Via Altitude Latitude Longitude Leg Dist Tot Dist Heading (true) Name
O LLBG APT - 0 ft / 0 m 32.01303˚ 34.86038˚ - 0 nm - -
O +32.00_+034.78 DME - 0 ft / 0 m 32.00011˚ 34.77642˚ 4 nm 4 nm 260° / 260° -

Altitude Profile

Advertisement - Login to hide

LLBG

Details ICAO LLBG (TLV)
Name Tel Aviv Ben Gurion
Region Israel
Timezone Asia/Jerusalem (UTC+2.0)
Stats Elevation 135 ft / 41 m (AMSL)
Location 32.011468° 34.885059°
Runways 3
Magnetic Variation 4.687° E

METAR

LLBG 150620Z VRB03KT 9999 FEW040 17/12 Q1020 NOSIG

Decode

TAF

TAF LLBG 150512Z 1506/1606 14004KT 9999 SCT035 BECMG 1507/1510 29008KT FEW040 BECMG 1515/1517 VRB03KT CAVOK TX21/1511Z TN11/1604Z

Decode

Departure Runways

ID Width Length Bearing (true) Bearing (mag) Surface Threshold Offset Overrun Length
03 148 ft / 45 m 5,792 ft / 1,765 m 28.88° 24.19° Asphalt 0 ft / 0 m 216 ft / 66 m
08 148 ft / 45 m 12,017 ft / 3,663 m 79.72° 75.03° Asphalt 0 ft / 0 m 295 ft / 90 m
12 148 ft / 45 m 10,279 ft / 3,133 m 121.54° 116.85° Asphalt 0 ft / 0 m 328 ft / 100 m
21 148 ft / 45 m 5,792 ft / 1,765 m 208.88° 204.19° Asphalt 0 ft / 0 m 216 ft / 66 m
26 148 ft / 45 m 12,017 ft / 3,663 m 259.74° 255.05° Asphalt 1,969 ft / 600 m 205 ft / 62 m
30 148 ft / 45 m 10,279 ft / 3,133 m 301.56° 296.87° Asphalt 246 ft / 75 m 347 ft / 106 m

LLSD

Details ICAO LLSD (SDV)
Name Sde Dov
Region Israel
Timezone Asia/Jerusalem (UTC+2.0)
Stats Elevation 43 ft / 13 m (AMSL)
Location 32.114661° 34.782238°
Runways 1
Magnetic Variation 4.697° E

METAR

LLSD 150550Z 13005KT 9999 FEW040 17/12 Q1020

Decode

TAF

TAF LLSD 150517Z 1506/1606 12004KT 9999 SCT035 BECMG 1507/1510 30010KT FEW040 BECMG 1515/1517 VRB03KT TX20/1511Z TN13/1604Z

Decode

Destination Runways

ID Width Length Bearing (true) Bearing (mag) Surface Threshold Offset Overrun Length
03 98 ft / 30 m 5,704 ft / 1,738 m 27.61° 22.91° Asphalt 341 ft / 104 m 0 ft / 0 m
21 98 ft / 30 m 5,704 ft / 1,738 m 207.61° 202.91° Asphalt 230 ft / 70 m 0 ft / 0 m

Popular Alternatives